Current | Forecast
Updated: 9:00 AM CEST on August 22, 2017
Observed at Santander Airport, Spain
Temperature 23°C
Humidity 73%
Dew Point 18°C
Wind West at 13 km/h
Pressure 1015 hPa (Rising)
Conditions Partly Cloudy
Visibility 10.0 kilometers
UV 1 out of 16
Clouds (FEW) : 1219 m
Yesterday's Maximum 29°C
Yesterday's Minimum 17°C approx.
Yesterday's Cooling Degree Days 8 approx.
Sunrise7:27 AM CEST
Sunset9:06 PM CEST
Moon Rise8:02 AM CEST
Moon Set9:41 PM CEST
Moon PhaseMoon Phase
New Moon
Raw METARMETAR LEXJ 220700Z 27007KT 9999 FEW040 23/18 Q1015


Monday
. High: 69° F.
Tuesday
. High: 73° F.
Wednesday
. High: 59° F.
Thursday
. High: 62° F.
Friday
. High: 71° F.
Saturday
. High: 69° F.
Sunday
. High: 66° F.
Monday
. High: 73° F.

Click here for Marine Information
Scientific forecaster discussion (NWS)

Units: English | Metric

Find the Weather for any City, State or Zipcode, or Country:

U.S. State List | Severe Weather | Tropical Storms | Ski Conditions
United States | Canada | Central America | South America | Asia | Europe | Australia | Africa | Islands

Weather Underground

© Copyright 2017
The Weather Company, LLC